createdAt,value
2019-03-13T00:00:37.751Z,8.13
2019-03-13T00:01:37.946Z,8.16
2019-03-13T00:02:37.729Z,8.16
2019-03-13T00:03:37.757Z,8.18
2019-03-13T00:04:37.795Z,8.24
2019-03-13T00:05:37.707Z,8.26
2019-03-13T00:06:37.791Z,8.26
2019-03-13T00:07:37.802Z,8.26
2019-03-13T00:08:37.793Z,8.24
2019-03-13T00:09:37.655Z,8.28
2019-03-13T00:10:37.679Z,8.31
2019-03-13T00:11:38.254Z,8.33
2019-03-13T00:12:37.634Z,8.34
2019-03-13T00:13:37.781Z,8.27
2019-03-13T00:14:37.802Z,8.37
2019-03-13T00:15:37.615Z,8.34
2019-03-13T00:16:37.616Z,8.36
2019-03-13T00:17:37.619Z,8.37
2019-03-13T00:18:37.624Z,8.36
2019-03-13T00:19:37.770Z,8.36
2019-03-13T00:20:37.615Z,8.38
2019-03-13T00:21:37.533Z,8.27
2019-03-13T00:22:37.508Z,8.30
2019-03-13T00:23:37.501Z,8.33
2019-03-13T00:24:37.498Z,8.33
2019-03-13T00:25:37.634Z,8.49
2019-03-13T00:26:37.470Z,8.49
2019-03-13T00:27:37.463Z,8.44
2019-03-13T00:28:37.454Z,8.51
2019-03-13T00:29:37.581Z,8.55
2019-03-13T00:30:37.428Z,8.49
2019-03-13T00:31:37.464Z,8.48
2019-03-13T00:32:37.437Z,8.48
2019-03-13T00:33:37.421Z,8.45
2019-03-13T00:34:37.432Z,8.58
2019-03-13T00:35:37.476Z,8.64
2019-03-13T00:36:37.479Z,8.60
2019-03-13T00:37:37.380Z,8.58
2019-03-13T00:38:37.343Z,8.67
2019-03-13T00:39:37.333Z,8.67
2019-03-13T00:40:37.321Z,8.66
2019-03-13T00:41:37.334Z,8.60
2019-03-13T00:42:37.465Z,8.61
2019-03-13T00:43:37.317Z,8.55
2019-03-13T00:44:37.282Z,8.61
2019-03-13T00:45:37.264Z,8.49
2019-03-13T00:46:37.258Z,8.55
2019-03-13T00:47:37.422Z,8.55
2019-03-13T00:48:37.242Z,8.58
2019-03-13T00:49:37.225Z,8.56
2019-03-13T00:50:37.208Z,8.51
2019-03-13T00:51:37.261Z,8.55
2019-03-13T00:52:37.192Z,8.52
2019-03-13T00:53:37.265Z,8.53
2019-03-13T00:54:37.272Z,8.53
2019-03-13T00:55:37.167Z,8.58
2019-03-13T00:56:37.148Z,8.46
2019-03-13T00:57:37.136Z,8.49
2019-03-13T00:58:37.253Z,8.60
2019-03-13T00:59:37.123Z,8.67
2019-03-13T01:00:37.114Z,8.60
2019-03-13T01:01:37.093Z,8.53
2019-03-13T01:02:37.081Z,8.60
2019-03-13T01:03:37.169Z,8.67
2019-03-13T01:04:37.083Z,8.69
2019-03-13T01:05:37.061Z,8.63
2019-03-13T01:06:37.156Z,8.64
2019-03-13T01:07:37.025Z,8.67
2019-03-13T01:08:37.021Z,8.66
2019-03-13T01:09:37.067Z,8.66
2019-03-13T01:10:36.990Z,8.69
2019-03-13T01:11:36.988Z,8.81
2019-03-13T01:12:37.098Z,8.84
2019-03-13T01:13:36.958Z,8.78
2019-03-13T01:14:36.956Z,8.78
2019-03-13T01:15:37.392Z,8.76
2019-03-13T01:16:36.925Z,8.79
2019-03-13T01:17:39.039Z,8.85
2019-03-13T01:18:37.017Z,8.84
2019-03-13T01:19:37.043Z,8.79
2019-03-13T01:20:36.892Z,8.76
2019-03-13T01:21:36.978Z,8.78
2019-03-13T01:22:36.860Z,8.79
2019-03-13T01:23:36.899Z,8.76
2019-03-13T01:24:36.840Z,8.84
2019-03-13T01:25:36.824Z,8.79
2019-03-13T01:26:36.845Z,8.71
2019-03-13T01:27:37.093Z,8.81
2019-03-13T01:28:36.801Z,8.70
2019-03-13T01:29:36.798Z,8.81
2019-03-13T01:30:36.778Z,8.73
2019-03-13T01:31:36.760Z,8.76
2019-03-13T01:32:36.760Z,8.66
2019-03-13T01:33:36.938Z,8.64
2019-03-13T01:34:36.735Z,8.70
2019-03-13T01:35:36.728Z,8.66
2019-03-13T01:36:36.702Z,8.67
2019-03-13T01:37:36.696Z,8.71
2019-03-13T01:38:36.682Z,8.66
2019-03-13T01:39:36.790Z,8.58
2019-03-13T01:40:36.681Z,8.66
2019-03-13T01:41:36.656Z,8.56
2019-03-13T01:42:37.285Z,8.55
2019-03-13T01:43:36.931Z,8.42
2019-03-13T01:44:36.752Z,8.41
2019-03-13T01:45:36.646Z,8.34
2019-03-13T01:46:36.622Z,8.30
2019-03-13T01:47:36.635Z,8.16
2019-03-13T01:48:36.575Z,8.08
2019-03-13T01:49:36.572Z,7.97
2019-03-13T01:50:36.662Z,8.01
2019-03-13T01:51:36.553Z,7.91
2019-03-13T01:52:36.537Z,7.90
2019-03-13T01:53:36.543Z,7.91
2019-03-13T01:54:36.514Z,7.83
2019-03-13T01:55:36.612Z,7.87
2019-03-13T01:56:36.485Z,7.82
2019-03-13T01:57:36.492Z,7.94
2019-03-13T01:58:36.620Z,7.90
2019-03-13T01:59:36.454Z,7.91
2019-03-13T02:00:36.502Z,7.91
2019-03-13T02:01:36.580Z,7.90
2019-03-13T02:02:36.434Z,7.82
2019-03-13T02:03:36.507Z,7.77
2019-03-13T02:04:36.399Z,7.66
2019-03-13T02:05:36.394Z,7.58
2019-03-13T02:06:36.477Z,7.56
2019-03-13T02:07:36.366Z,7.40
2019-03-13T02:08:36.359Z,7.35
2019-03-13T02:09:36.474Z,7.42
2019-03-13T02:10:36.337Z,7.36
2019-03-13T02:11:36.330Z,7.42
2019-03-13T02:12:36.315Z,7.33
2019-03-13T02:13:36.323Z,7.25
2019-03-13T02:14:36.300Z,7.31
2019-03-13T02:15:36.459Z,7.23
2019-03-13T02:16:36.276Z,7.17
2019-03-13T02:17:36.257Z,7.11
2019-03-13T02:18:36.245Z,7.07
2019-03-13T02:19:36.240Z,7.00
2019-03-13T02:20:37.812Z,6.99
2019-03-13T02:21:36.353Z,7.10
2019-03-13T02:22:36.208Z,6.97
2019-03-13T02:23:36.211Z,7.05
2019-03-13T02:24:36.180Z,6.92
2019-03-13T02:25:36.179Z,6.81
2019-03-13T02:26:36.180Z,6.84
2019-03-13T02:27:36.261Z,6.82
2019-03-13T02:28:36.154Z,6.79
2019-03-13T02:29:36.142Z,6.78
2019-03-13T02:30:36.120Z,6.72
2019-03-13T02:31:36.187Z,6.75
2019-03-13T02:32:36.210Z,6.70
2019-03-13T02:33:36.086Z,6.66
2019-03-13T02:34:36.229Z,6.74
2019-03-13T02:35:36.061Z,6.60
2019-03-13T02:36:36.068Z,6.66
2019-03-13T02:37:36.141Z,6.64
2019-03-13T02:38:36.043Z,6.46
2019-03-13T02:39:36.125Z,6.62
2019-03-13T02:40:36.012Z,6.66
2019-03-13T02:41:36.793Z,6.79
2019-03-13T02:42:35.986Z,6.64
2019-03-13T02:43:36.068Z,6.59
2019-03-13T02:44:35.966Z,6.59
2019-03-13T02:45:35.958Z,6.60
2019-03-13T02:46:35.943Z,6.54
2019-03-13T02:47:35.938Z,6.57
2019-03-13T02:48:35.921Z,6.60
2019-03-13T02:49:36.112Z,6.49
2019-03-13T02:50:35.901Z,6.63
2019-03-13T02:51:35.899Z,6.67
2019-03-13T02:52:35.891Z,6.62
2019-03-13T02:53:35.863Z,6.70
2019-03-13T02:54:35.858Z,6.66
2019-03-13T02:55:35.958Z,6.72
2019-03-13T02:56:36.005Z,6.72
2019-03-13T02:57:35.819Z,6.77
2019-03-13T02:58:35.815Z,6.74
2019-03-13T02:59:35.812Z,6.69
2019-03-13T03:00:37.700Z,6.74
2019-03-13T03:01:35.811Z,6.75
2019-03-13T03:02:36.669Z,6.82
2019-03-13T03:03:35.754Z,6.84
2019-03-13T03:04:35.904Z,6.82
2019-03-13T03:05:35.748Z,6.77
2019-03-13T03:06:35.800Z,6.88
2019-03-13T03:07:35.717Z,6.78
2019-03-13T03:08:35.935Z,6.84
2019-03-13T03:09:35.701Z,6.87
2019-03-13T03:10:35.675Z,6.87
2019-03-13T03:11:35.666Z,6.84
2019-03-13T03:12:35.786Z,6.79
2019-03-13T03:13:35.650Z,6.82
2019-03-13T03:14:35.773Z,6.84
2019-03-13T03:15:35.656Z,6.84
2019-03-13T03:16:35.612Z,6.87
2019-03-13T03:17:35.614Z,6.82
2019-03-13T03:18:35.603Z,6.84
2019-03-13T03:19:35.776Z,6.75
2019-03-13T03:20:35.606Z,6.85
2019-03-13T03:21:35.633Z,6.96
2019-03-13T03:22:35.579Z,6.87
2019-03-13T03:23:35.780Z,6.95
2019-03-13T03:24:35.529Z,6.95
2019-03-13T03:25:35.820Z,6.87
2019-03-13T03:26:35.515Z,6.97
2019-03-13T03:27:35.492Z,7.05
2019-03-13T03:28:35.483Z,7.10
2019-03-13T03:29:38.911Z,7.11
2019-03-13T03:30:35.464Z,7.13
2019-03-13T03:31:35.450Z,7.06
2019-03-13T03:32:35.448Z,7.07
2019-03-13T03:33:35.479Z,7.10
2019-03-13T03:34:35.415Z,7.17
2019-03-13T03:35:35.564Z,7.13
2019-03-13T03:36:35.405Z,7.15
2019-03-13T03:37:35.491Z,7.20
2019-03-13T03:38:35.430Z,7.15
2019-03-13T03:39:35.366Z,7.25
2019-03-13T03:40:35.386Z,7.25
2019-03-13T03:41:35.668Z,7.18
2019-03-13T03:42:35.335Z,7.24
2019-03-13T03:43:40.640Z,7.15
2019-03-13T03:44:36.489Z,7.28
2019-03-13T03:45:35.301Z,7.23
2019-03-13T03:46:35.290Z,7.17
2019-03-13T03:47:35.831Z,7.18
2019-03-13T03:48:35.269Z,7.17
2019-03-13T03:49:35.436Z,7.15
2019-03-13T03:50:35.255Z,7.17
2019-03-13T03:51:35.231Z,7.20
2019-03-13T03:52:35.222Z,7.20
2019-03-13T03:53:35.210Z,7.18
2019-03-13T03:54:35.278Z,7.11
2019-03-13T03:55:35.264Z,7.11
2019-03-13T03:56:35.184Z,7.06
2019-03-13T03:57:35.169Z,7.11
2019-03-13T03:58:35.153Z,7.07
2019-03-13T03:59:35.145Z,7.13
2019-03-13T04:00:35.253Z,7.07
2019-03-13T04:01:35.158Z,7.05
2019-03-13T04:02:35.117Z,6.97
2019-03-13T04:03:35.110Z,7.06
2019-03-13T04:04:35.089Z,6.96
2019-03-13T04:05:35.082Z,6.99
2019-03-13T04:06:35.130Z,6.99
2019-03-13T04:07:35.064Z,7.03
2019-03-13T04:08:37.808Z,7.03
2019-03-13T04:09:35.039Z,7.02
2019-03-13T04:10:35.018Z,7.07
2019-03-13T04:11:35.142Z,7.03
2019-03-13T04:12:35.075Z,7.02
2019-03-13T04:13:34.992Z,7.02
2019-03-13T04:14:35.006Z,6.92
2019-03-13T04:15:34.978Z,6.99
2019-03-13T04:16:34.955Z,7.05
2019-03-13T04:17:35.042Z,7.02
2019-03-13T04:18:34.932Z,6.99
2019-03-13T04:19:34.921Z,6.95
2019-03-13T04:20:34.914Z,6.89
2019-03-13T04:21:34.914Z,6.96
2019-03-13T04:22:34.910Z,6.89
2019-03-13T04:23:35.008Z,6.82
2019-03-13T04:24:34.912Z,6.93
2019-03-13T04:25:34.867Z,6.82
2019-03-13T04:26:34.856Z,6.84
2019-03-13T04:27:34.847Z,6.85
2019-03-13T04:28:35.005Z,6.81
2019-03-13T04:29:35.082Z,6.85
2019-03-13T04:30:34.798Z,6.78
2019-03-13T04:31:34.796Z,6.72
2019-03-13T04:32:34.775Z,6.77
2019-03-13T04:33:34.774Z,6.72
2019-03-13T04:34:34.923Z,6.87
2019-03-13T04:35:34.746Z,6.75
2019-03-13T04:36:34.740Z,6.88
2019-03-13T04:37:34.764Z,6.74
2019-03-13T04:38:34.714Z,6.72
2019-03-13T04:39:34.811Z,6.72
2019-03-13T04:40:34.703Z,6.72
2019-03-13T04:41:34.686Z,6.79
2019-03-13T04:42:34.666Z,6.70
2019-03-13T04:43:34.661Z,6.75
2019-03-13T04:44:34.675Z,6.78
2019-03-13T04:45:34.712Z,6.72
2019-03-13T04:46:34.643Z,6.74
2019-03-13T04:47:34.624Z,6.70
2019-03-13T04:48:34.602Z,6.69
2019-03-13T04:49:34.592Z,6.69
2019-03-13T04:50:34.587Z,6.69
2019-03-13T04:51:34.669Z,6.67
2019-03-13T04:52:34.572Z,6.66
2019-03-13T04:53:34.545Z,6.70
2019-03-13T04:54:34.537Z,6.72
2019-03-13T04:55:34.531Z,6.70
2019-03-13T04:56:34.637Z,6.70
2019-03-13T04:57:34.575Z,6.69
2019-03-13T04:58:34.500Z,6.63
2019-03-13T04:59:34.481Z,6.63
2019-03-13T05:00:34.487Z,6.63
2019-03-13T05:01:34.532Z,6.66
2019-03-13T05:02:34.553Z,6.62
2019-03-13T05:03:34.445Z,6.63
2019-03-13T05:04:34.428Z,6.63
2019-03-13T05:05:34.419Z,6.51
2019-03-13T05:06:34.405Z,6.49
2019-03-13T05:07:34.401Z,6.57
2019-03-13T05:08:44.577Z,6.62
2019-03-13T05:09:35.455Z,6.44
2019-03-13T05:10:34.369Z,6.51
2019-03-13T05:11:34.351Z,6.42
2019-03-13T05:12:34.343Z,6.45
2019-03-13T05:13:34.349Z,6.44
2019-03-13T05:14:34.339Z,6.38
2019-03-13T05:15:34.488Z,6.45
2019-03-13T05:16:34.305Z,6.36
2019-03-13T05:17:34.283Z,6.26
2019-03-13T05:18:34.356Z,6.26
2019-03-13T05:19:34.266Z,6.31
2019-03-13T05:20:34.533Z,6.22
2019-03-13T05:21:34.242Z,6.30
2019-03-13T05:22:34.266Z,6.17
2019-03-13T05:23:34.246Z,6.20
2019-03-13T05:24:34.219Z,6.24
2019-03-13T05:25:34.286Z,6.17
2019-03-13T05:26:34.278Z,6.07
2019-03-13T05:27:34.204Z,6.08
2019-03-13T05:28:34.169Z,6.07
2019-03-13T05:29:34.161Z,6.05
2019-03-13T05:30:34.144Z,5.99
2019-03-13T05:31:34.267Z,5.94
2019-03-13T05:32:34.130Z,5.89
2019-03-13T05:33:34.329Z,5.89
2019-03-13T05:34:34.099Z,5.87
2019-03-13T05:35:34.168Z,5.86
2019-03-13T05:36:34.106Z,5.86
2019-03-13T05:37:34.375Z,5.84
2019-03-13T05:38:34.161Z,5.82
2019-03-13T05:39:34.045Z,6.01
2019-03-13T05:40:34.032Z,5.98
2019-03-13T05:41:34.036Z,6.01
2019-03-13T05:42:34.010Z,6.04
2019-03-13T05:43:34.129Z,6.02
2019-03-13T05:44:33.993Z,6.19
2019-03-13T05:45:33.995Z,6.19
2019-03-13T05:46:34.071Z,6.20
2019-03-13T05:47:33.960Z,6.24
2019-03-13T05:48:33.962Z,6.24
2019-03-13T05:49:33.946Z,6.20
2019-03-13T05:50:33.931Z,6.17
2019-03-13T05:51:34.020Z,6.07
2019-03-13T05:52:33.902Z,6.14
2019-03-13T05:53:33.897Z,6.01
2019-03-13T05:54:33.896Z,6.14
2019-03-13T05:55:33.885Z,6.09
2019-03-13T05:56:33.863Z,6.04
2019-03-13T05:57:33.971Z,6.01
2019-03-13T05:58:33.867Z,6.08
2019-03-13T05:59:33.847Z,6.07
2019-03-13T06:00:33.822Z,6.11
2019-03-13T06:01:33.925Z,5.94
2019-03-13T06:02:34.007Z,6.05
2019-03-13T06:03:33.995Z,5.93
2019-03-13T06:04:33.860Z,5.99
2019-03-13T06:05:33.789Z,5.94
2019-03-13T06:06:33.997Z,5.97
2019-03-13T06:07:33.823Z,6.01
2019-03-13T06:08:33.732Z,6.02
2019-03-13T06:09:33.982Z,6.19
2019-03-13T06:10:33.844Z,6.20
2019-03-13T06:11:33.711Z,6.35
2019-03-13T06:12:33.704Z,6.38
2019-03-13T06:13:33.686Z,6.48
2019-03-13T06:14:33.866Z,6.42
2019-03-13T06:15:33.655Z,6.46
2019-03-13T06:16:33.826Z,6.42
2019-03-13T06:17:33.640Z,6.42
2019-03-13T06:18:33.637Z,6.45
2019-03-13T06:19:33.617Z,6.49
2019-03-13T06:20:33.612Z,6.56
2019-03-13T06:21:33.682Z,6.44
2019-03-13T06:22:33.610Z,6.57
2019-03-13T06:23:33.630Z,6.54
2019-03-13T06:24:33.698Z,6.56
2019-03-13T06:25:33.597Z,6.54
2019-03-13T06:26:33.625Z,6.41
2019-03-13T06:27:33.685Z,6.52
2019-03-13T06:28:33.523Z,6.38
2019-03-13T06:29:33.511Z,6.57
2019-03-13T06:30:33.509Z,6.60
2019-03-13T06:31:33.505Z,6.56
2019-03-13T06:32:33.517Z,6.46
2019-03-13T06:33:33.612Z,6.51
2019-03-13T06:34:33.449Z,6.51
2019-03-13T06:35:33.495Z,6.52
2019-03-13T06:36:33.439Z,6.49
2019-03-13T06:37:33.410Z,6.62
2019-03-13T06:38:33.397Z,6.63
2019-03-13T06:39:33.505Z,6.62
2019-03-13T06:40:33.388Z,6.64
2019-03-13T06:41:33.431Z,6.62
2019-03-13T06:42:33.361Z,6.52
2019-03-13T06:43:33.754Z,6.64
2019-03-13T06:44:33.332Z,6.52
2019-03-13T06:45:33.327Z,6.52
2019-03-13T06:46:33.324Z,6.54
2019-03-13T06:47:33.332Z,6.49
2019-03-13T06:48:33.338Z,6.45
2019-03-13T06:49:33.512Z,6.45
2019-03-13T06:50:33.443Z,6.44
2019-03-13T06:51:33.282Z,6.54
2019-03-13T06:52:33.335Z,6.62
2019-03-13T06:53:33.247Z,6.60
2019-03-13T06:54:33.228Z,6.59
2019-03-13T06:55:33.312Z,6.66
2019-03-13T06:56:33.347Z,6.66
2019-03-13T06:57:33.214Z,6.63
2019-03-13T06:58:33.255Z,6.59
2019-03-13T06:59:33.191Z,6.51
2019-03-13T07:00:33.369Z,6.51
2019-03-13T07:01:33.242Z,6.59
2019-03-13T07:02:33.324Z,6.77
2019-03-13T07:03:33.139Z,6.70
2019-03-13T07:04:33.130Z,6.75
2019-03-13T07:05:33.106Z,6.78
2019-03-13T07:06:33.135Z,6.87
2019-03-13T07:07:33.166Z,6.87
2019-03-13T07:08:33.115Z,6.78
2019-03-13T07:09:33.067Z,6.79
2019-03-13T07:10:33.064Z,6.77
2019-03-13T07:11:33.071Z,6.74
2019-03-13T07:12:33.122Z,7.63
2019-03-13T07:13:33.400Z,8.37
2019-03-13T07:14:33.086Z,10.25
2019-03-13T07:15:35.761Z,11.66
2019-03-13T07:16:32.995Z,11.91
2019-03-13T07:17:33.017Z,11.81
2019-03-13T07:18:33.005Z,11.17
2019-03-13T07:19:33.046Z,11.10
2019-03-13T07:20:32.945Z,11.86
2019-03-13T07:21:32.988Z,13.01
2019-03-13T07:22:32.935Z,14.15
2019-03-13T07:23:32.906Z,14.53
2019-03-13T07:24:33.051Z,12.25
2019-03-13T07:25:32.884Z,10.38
2019-03-13T07:26:32.885Z,9.68
2019-03-13T07:27:33.070Z,9.56
2019-03-13T07:28:32.865Z,9.21
2019-03-13T07:29:32.844Z,9.19
2019-03-13T07:30:32.919Z,9.04
2019-03-13T07:31:33.029Z,8.71
2019-03-13T07:32:33.161Z,8.34
2019-03-13T07:33:32.809Z,8.38
2019-03-13T07:34:32.862Z,8.34
2019-03-13T07:35:32.776Z,8.31
2019-03-13T07:36:32.775Z,8.20
2019-03-13T07:37:32.767Z,8.20
2019-03-13T07:38:32.858Z,8.26
2019-03-13T07:39:32.755Z,8.08
2019-03-13T07:40:32.724Z,7.98
2019-03-13T07:41:35.489Z,7.93
2019-03-13T07:42:32.761Z,7.90
2019-03-13T07:43:32.792Z,8.67
2019-03-13T07:44:32.674Z,8.52
2019-03-13T07:45:32.679Z,9.00
2019-03-13T07:46:32.700Z,8.94
2019-03-13T07:47:32.868Z,8.64
2019-03-13T07:48:32.638Z,8.74
2019-03-13T07:49:32.877Z,9.91
2019-03-13T07:50:32.634Z,9.76
2019-03-13T07:51:32.622Z,9.59
2019-03-13T07:52:33.076Z,11.23
2019-03-13T07:53:32.603Z,11.77
2019-03-13T07:54:32.701Z,11.90
2019-03-13T07:55:32.568Z,10.53
2019-03-13T07:56:32.666Z,9.62
2019-03-13T07:57:32.542Z,9.31
2019-03-13T07:58:32.541Z,9.22
2019-03-13T07:59:32.632Z,8.99
2019-03-13T08:00:32.504Z,8.74
2019-03-13T08:01:32.489Z,8.58
2019-03-13T08:02:32.492Z,8.56
2019-03-13T08:03:32.464Z,9.00
2019-03-13T08:04:33.735Z,9.06
2019-03-13T08:05:32.563Z,9.39
2019-03-13T08:06:32.454Z,11.00
2019-03-13T08:07:32.428Z,10.99
2019-03-13T08:08:32.430Z,12.00
2019-03-13T08:09:32.405Z,13.60
2019-03-13T08:10:32.397Z,14.62
2019-03-13T08:11:32.603Z,15.70
2019-03-13T08:12:32.370Z,17.04
2019-03-13T08:13:32.375Z,17.78
2019-03-13T08:14:32.365Z,17.20
2019-03-13T08:15:32.341Z,16.96
2019-03-13T08:16:32.330Z,17.24
2019-03-13T08:17:32.549Z,16.28
2019-03-13T08:18:46.888Z,16.33
2019-03-13T08:19:32.373Z,17.12
2019-03-13T08:20:32.296Z,18.41
2019-03-13T08:21:32.435Z,18.77
2019-03-13T08:22:32.266Z,16.20
2019-03-13T08:23:32.269Z,17.09
2019-03-13T08:24:32.233Z,18.11
2019-03-13T08:25:33.148Z,18.77
2019-03-13T08:26:32.219Z,19.66
2019-03-13T08:27:32.320Z,18.56
2019-03-13T08:28:32.224Z,16.31
2019-03-13T08:29:32.215Z,15.37
2019-03-13T08:30:32.171Z,14.29
2019-03-13T08:31:32.166Z,14.33
2019-03-13T08:32:32.166Z,13.27
2019-03-13T08:33:32.245Z,13.68
2019-03-13T08:34:32.131Z,15.19
2019-03-13T08:35:32.232Z,15.07
2019-03-13T08:36:32.163Z,16.36
2019-03-13T08:37:32.103Z,17.78
2019-03-13T08:38:32.084Z,18.01
2019-03-13T08:39:32.084Z,17.09
2019-03-13T08:40:32.062Z,15.57
2019-03-13T08:41:32.149Z,16.15
2019-03-13T08:42:32.050Z,15.98
2019-03-13T08:43:32.031Z,15.03
2019-03-13T08:44:32.040Z,14.86
2019-03-13T08:45:32.007Z,14.81
2019-03-13T08:46:32.739Z,14.66
2019-03-13T08:47:32.081Z,14.50
2019-03-13T08:48:31.984Z,14.12
2019-03-13T08:49:31.978Z,14.25
2019-03-13T08:50:31.958Z,13.35
2019-03-13T08:51:31.946Z,13.47
2019-03-13T08:52:31.973Z,12.78
2019-03-13T08:53:32.192Z,12.35
2019-03-13T08:54:31.922Z,11.72
2019-03-13T08:55:31.926Z,11.36
2019-03-13T08:56:32.162Z,11.66
2019-03-13T08:57:31.884Z,11.91
2019-03-13T08:58:31.864Z,12.78
2019-03-13T08:59:31.870Z,12.39
2019-03-13T09:00:31.852Z,11.54
2019-03-13T09:01:31.833Z,12.76
2019-03-13T09:02:32.007Z,15.46
2019-03-13T09:03:31.811Z,17.85
2019-03-13T09:04:31.809Z,18.96
2019-03-13T09:05:31.813Z,18.95
2019-03-13T09:06:31.804Z,16.84
2019-03-13T09:07:32.219Z,16.93
2019-03-13T09:08:31.915Z,16.43
2019-03-13T09:09:31.741Z,16.41
2019-03-13T09:10:31.833Z,17.16
2019-03-13T09:11:31.724Z,16.66
2019-03-13T09:12:31.738Z,18.52
2019-03-13T09:13:31.703Z,19.30
2019-03-13T09:14:31.895Z,19.07
2019-03-13T09:15:31.702Z,20.36
2019-03-13T09:16:31.680Z,20.93
2019-03-13T09:17:31.672Z,21.93
2019-03-13T09:18:31.661Z,18.05
2019-03-13T09:19:31.849Z,17.24
2019-03-13T09:20:31.641Z,15.97
2019-03-13T09:21:33.601Z,17.12
2019-03-13T09:22:31.662Z,17.72
2019-03-13T09:23:31.639Z,15.76
2019-03-13T09:24:31.628Z,13.97
2019-03-13T09:25:31.670Z,13.33
2019-03-13T09:26:31.551Z,13.47
2019-03-13T09:27:31.876Z,14.63
2019-03-13T09:28:31.547Z,16.39
2019-03-13T09:29:31.682Z,17.60
2019-03-13T09:30:31.509Z,16.78
2019-03-13T09:31:31.502Z,17.19
2019-03-13T09:32:31.516Z,16.23
2019-03-13T09:33:31.663Z,15.03
2019-03-13T09:34:31.480Z,14.60
2019-03-13T09:35:31.493Z,15.59
2019-03-13T09:36:31.453Z,17.72
2019-03-13T09:37:31.435Z,19.48
2019-03-13T09:38:31.432Z,17.71
2019-03-13T09:39:31.551Z,16.13
2019-03-13T09:40:31.425Z,15.40
2019-03-13T09:41:31.409Z,13.89
2019-03-13T09:42:31.437Z,13.28
2019-03-13T09:43:31.379Z,12.97
2019-03-13T09:44:31.700Z,12.80
2019-03-13T09:45:31.353Z,12.54
2019-03-13T09:46:31.342Z,13.03
2019-03-13T09:47:31.323Z,13.23
2019-03-13T09:48:31.309Z,15.42
2019-03-13T09:49:31.313Z,14.36
2019-03-13T09:50:31.412Z,13.57
2019-03-13T09:51:31.320Z,12.62
2019-03-13T09:52:31.276Z,12.55
2019-03-13T09:53:31.253Z,12.60
2019-03-13T09:54:31.250Z,12.42
2019-03-13T09:55:31.356Z,12.02
2019-03-13T09:56:31.223Z,11.94
2019-03-13T09:57:31.226Z,12.06
2019-03-13T09:58:31.317Z,13.44
2019-03-13T09:59:42.815Z,12.90
2019-03-13T10:00:32.309Z,12.42
2019-03-13T10:01:31.366Z,12.35
2019-03-13T10:02:31.197Z,11.99
2019-03-13T10:03:31.155Z,11.63
2019-03-13T10:04:31.161Z,11.60
2019-03-13T10:05:31.120Z,11.52
2019-03-13T10:06:31.115Z,11.55
2019-03-13T10:07:31.197Z,11.63
2019-03-13T10:08:31.096Z,11.91
2019-03-13T10:09:31.101Z,12.10
2019-03-13T10:10:31.070Z,11.69
2019-03-13T10:11:31.064Z,11.44
2019-03-13T10:12:31.178Z,11.23
2019-03-13T10:13:31.054Z,11.86
2019-03-13T10:14:31.040Z,11.50
2019-03-13T10:15:31.035Z,11.78
2019-03-13T10:16:31.083Z,11.78
2019-03-13T10:17:30.995Z,11.88
2019-03-13T10:18:31.182Z,12.76
2019-03-13T10:19:31.034Z,13.49
2019-03-13T10:20:30.973Z,14.89
2019-03-13T10:21:30.962Z,15.44
2019-03-13T10:22:30.942Z,15.37
2019-03-13T10:23:30.926Z,14.26
2019-03-13T10:24:31.106Z,13.59
2019-03-13T10:25:30.921Z,12.76
2019-03-13T10:26:30.900Z,12.68
2019-03-13T10:27:30.901Z,12.57
2019-03-13T10:28:30.868Z,12.43
2019-03-13T10:29:30.868Z,14.77
2019-03-13T10:30:31.037Z,15.52
2019-03-13T10:31:30.868Z,15.09
2019-03-13T10:32:30.842Z,13.90
2019-03-13T10:33:30.833Z,13.33
2019-03-13T10:34:30.802Z,12.86
2019-03-13T10:35:30.819Z,12.62
2019-03-13T10:36:30.876Z,12.47
2019-03-13T10:37:30.800Z,12.45
2019-03-13T10:38:30.769Z,12.12
2019-03-13T10:39:30.747Z,12.53
2019-03-13T10:40:30.878Z,12.91
2019-03-13T10:41:30.736Z,12.75
2019-03-13T10:42:30.722Z,13.01
2019-03-13T10:43:30.712Z,12.78
2019-03-13T10:44:30.709Z,13.09
2019-03-13T10:45:30.784Z,13.18
2019-03-13T10:46:30.701Z,13.75
2019-03-13T10:47:30.662Z,13.89
2019-03-13T10:48:30.709Z,16.17
2019-03-13T10:49:30.645Z,15.42
2019-03-13T10:50:30.809Z,15.42
2019-03-13T10:51:30.635Z,14.88
2019-03-13T10:52:30.613Z,16.84
2019-03-13T10:53:30.598Z,17.79
2019-03-13T10:54:30.588Z,16.89
2019-03-13T10:55:30.758Z,17.97
2019-03-13T10:56:30.690Z,18.74
2019-03-13T10:57:30.668Z,19.33
2019-03-13T10:58:30.561Z,19.16
2019-03-13T10:59:30.537Z,19.29
2019-03-13T11:00:30.515Z,19.55
2019-03-13T11:01:30.567Z,19.33
2019-03-13T11:02:30.504Z,18.75
2019-03-13T11:03:30.630Z,19.51
2019-03-13T11:04:30.477Z,19.15
2019-03-13T11:05:30.517Z,19.70
2019-03-13T11:06:30.452Z,17.48
2019-03-13T11:07:30.463Z,18.31
2019-03-13T11:08:30.425Z,17.16
2019-03-13T11:09:30.776Z,17.30
2019-03-13T11:10:30.419Z,18.41
2019-03-13T11:11:30.396Z,19.14
2019-03-13T11:12:30.391Z,17.79
2019-03-13T11:13:30.598Z,15.42
2019-03-13T11:14:30.391Z,14.37
2019-03-13T11:15:30.358Z,13.71
2019-03-13T11:16:30.345Z,13.01
2019-03-13T11:17:30.330Z,13.11
2019-03-13T11:18:30.329Z,12.97
2019-03-13T11:19:30.455Z,14.29
2019-03-13T11:20:30.348Z,15.59
2019-03-13T11:21:30.294Z,16.33
2019-03-13T11:22:30.348Z,15.80
2019-03-13T11:23:35.148Z,16.54
2019-03-13T11:24:30.263Z,16.89
2019-03-13T11:25:30.370Z,17.41
2019-03-13T11:26:30.254Z,17.36
2019-03-13T11:27:30.248Z,17.68
2019-03-13T11:28:30.245Z,17.16
2019-03-13T11:29:30.231Z,17.94
2019-03-13T11:30:30.199Z,18.35
2019-03-13T11:31:30.310Z,17.19
2019-03-13T11:32:30.185Z,15.80
2019-03-13T11:33:30.161Z,16.05
2019-03-13T11:34:30.145Z,15.29
2019-03-13T11:35:30.139Z,14.79
2019-03-13T11:36:30.156Z,14.82
2019-03-13T11:37:30.220Z,15.39
2019-03-13T11:38:30.110Z,14.63
2019-03-13T11:39:30.177Z,14.03
2019-03-13T11:40:30.077Z,13.79
2019-03-13T11:41:30.093Z,14.41
2019-03-13T11:42:30.172Z,14.00
2019-03-13T11:43:30.057Z,13.22
2019-03-13T11:44:30.036Z,12.79
2019-03-13T11:45:30.183Z,12.93
2019-03-13T11:46:30.015Z,12.79
2019-03-13T11:47:41.709Z,12.15
2019-03-13T11:48:30.989Z,11.77
2019-03-13T11:49:30.061Z,11.36
2019-03-13T11:50:32.469Z,11.11
2019-03-13T11:51:30.062Z,11.05
2019-03-13T11:52:29.948Z,11.02
2019-03-13T11:53:29.940Z,10.99
2019-03-13T11:54:29.957Z,10.86
2019-03-13T11:55:29.914Z,10.92
2019-03-13T11:56:29.900Z,10.81
2019-03-13T11:57:30.112Z,10.75
2019-03-13T11:58:29.892Z,10.71
2019-03-13T11:59:29.876Z,10.75
2019-03-13T12:00:29.862Z,10.61
2019-03-13T12:01:29.844Z,10.87
2019-03-13T12:02:29.834Z,10.86
2019-03-13T12:03:29.928Z,10.69
2019-03-13T12:04:29.813Z,10.71
2019-03-13T12:05:29.802Z,10.63
2019-03-13T12:06:29.880Z,10.34
2019-03-13T12:07:29.913Z,10.48
2019-03-13T12:08:29.783Z,10.40
2019-03-13T12:09:29.929Z,10.31
2019-03-13T12:10:29.751Z,10.40
2019-03-13T12:11:29.789Z,10.30
2019-03-13T12:12:29.722Z,10.38
2019-03-13T12:13:29.771Z,10.38
2019-03-13T12:14:29.715Z,10.38
2019-03-13T12:15:29.970Z,10.40
2019-03-13T12:16:29.705Z,10.41
2019-03-13T12:17:29.757Z,10.33
2019-03-13T12:18:29.702Z,10.26
2019-03-13T12:19:29.889Z,10.30
2019-03-13T12:20:29.716Z,10.30
2019-03-13T12:21:29.684Z,10.16
2019-03-13T12:22:29.724Z,10.33
2019-03-13T12:23:29.605Z,10.34
2019-03-13T12:24:29.791Z,10.23
2019-03-13T12:25:29.598Z,10.25
2019-03-13T12:26:29.625Z,10.02
2019-03-13T12:27:29.653Z,9.99
2019-03-13T12:28:29.629Z,10.05
2019-03-13T12:29:29.541Z,10.05
2019-03-13T12:30:29.866Z,10.22
2019-03-13T12:31:29.527Z,10.22
2019-03-13T12:32:29.512Z,10.25
2019-03-13T12:33:29.514Z,10.30
2019-03-13T12:34:29.495Z,10.26
2019-03-13T12:35:29.488Z,10.28
2019-03-13T12:36:29.861Z,10.31
2019-03-13T12:37:29.452Z,10.30
2019-03-13T12:38:29.462Z,10.19
2019-03-13T12:39:29.436Z,10.20
2019-03-13T12:40:29.415Z,10.15
2019-03-13T12:41:29.403Z,10.30
2019-03-13T12:42:29.587Z,10.26
2019-03-13T12:43:29.564Z,10.33
2019-03-13T12:44:29.529Z,10.22
2019-03-13T12:45:30.607Z,10.22
2019-03-13T12:46:29.356Z,10.31
2019-03-13T12:47:29.360Z,10.23
2019-03-13T12:48:29.352Z,10.28
2019-03-13T12:49:29.321Z,10.26
2019-03-13T12:50:29.429Z,10.17
2019-03-13T12:51:29.302Z,10.26
2019-03-13T12:52:29.310Z,10.34
2019-03-13T12:53:29.273Z,10.23
2019-03-13T12:54:29.397Z,10.09
2019-03-13T12:55:29.254Z,10.10
2019-03-13T12:56:30.345Z,10.17
2019-03-13T12:57:29.245Z,9.99
2019-03-13T12:58:29.218Z,10.02
2019-03-13T12:59:29.207Z,10.09
2019-03-13T13:00:29.373Z,10.09
2019-03-13T13:01:29.201Z,10.07
2019-03-13T13:02:29.196Z,10.13
2019-03-13T13:03:29.166Z,10.22
2019-03-13T13:04:29.152Z,10.13
2019-03-13T13:05:29.271Z,10.05
2019-03-13T13:06:30.023Z,9.99
2019-03-13T13:07:29.117Z,9.83
2019-03-13T13:08:29.115Z,9.95